sensor_id;sensor_type;location;lat;lon;timestamp;pressure;altitude;pressure_sealevel;temperature;humidity
61474;BME280;53694;49.784;30.150;2023-01-27T01:08:49;100224.11;;;-2.63;97.93
61474;BME280;53694;49.784;30.150;2023-01-27T01:09:51;100251.80;;;-2.62;97.71
61474;BME280;53694;49.784;30.150;2023-01-27T01:10:53;100246.16;;;-2.61;97.36
61474;BME280;53694;49.784;30.150;2023-01-27T01:11:54;100238.41;;;-2.52;97.15
61474;BME280;53694;49.784;30.150;2023-01-27T01:12:56;100242.59;;;-2.29;96.68
61474;BME280;53694;49.784;30.150;2023-01-27T01:13:57;100245.71;;;-1.95;95.35
61474;BME280;53694;49.784;30.150;2023-01-27T01:14:59;100247.42;;;-1.58;93.89
61474;BME280;53694;49.784;30.150;2023-01-27T01:16:07;100244.81;;;-1.17;92.34
61474;BME280;53694;49.784;30.150;2023-01-27T01:17:09;100244.00;;;-0.72;90.61
61474;BME280;53694;49.784;30.150;2023-01-27T01:18:11;100244.98;;;-0.27;88.07
61474;BME280;53694;49.784;30.150;2023-01-27T01:19:12;100244.59;;;0.10;85.58
61474;BME280;53694;49.784;30.150;2023-01-27T01:20:14;100244.44;;;0.41;83.24
61474;BME280;53694;49.784;30.150;2023-01-27T01:21:16;100246.70;;;0.68;81.46
61474;BME280;53694;49.784;30.150;2023-01-27T01:22:17;100248.16;;;0.94;80.17
61474;BME280;53694;49.784;30.150;2023-01-27T01:23:19;100244.65;;;1.23;79.16
61474;BME280;53694;49.784;30.150;2023-01-27T01:24:20;100238.49;;;1.46;77.51
61474;BME280;53694;49.784;30.150;2023-01-27T01:25:22;100234.72;;;1.71;76.46
61474;BME280;53694;49.784;30.150;2023-01-27T01:26:24;100238.52;;;1.94;74.71
61474;BME280;53694;49.784;30.150;2023-01-27T01:27:25;100238.84;;;2.12;73.51
61474;BME280;53694;49.784;30.150;2023-01-27T01:28:27;100237.55;;;2.28;72.82
61474;BME280;53694;49.784;30.150;2023-01-27T01:29:28;100236.26;;;2.44;71.92
61474;BME280;53694;49.784;30.150;2023-01-27T01:30:32;100240.45;;;2.56;70.34
61474;BME280;53694;49.784;30.150;2023-01-27T01:31:34;100236.47;;;2.67;69.70
61474;BME280;53694;49.784;30.150;2023-01-27T01:32:35;100234.43;;;2.78;68.68
61474;BME280;53694;49.784;30.150;2023-01-27T01:33:37;100230.25;;;2.85;67.96
61474;BME280;53694;49.784;30.150;2023-01-27T01:34:38;100234.88;;;2.85;67.15
61474;BME280;53694;49.784;30.150;2023-01-27T01:35:40;100231.58;;;2.69;67.17
61474;BME280;53694;49.784;30.150;2023-01-27T01:36:42;100236.03;;;2.41;67.51
61474;BME280;53694;49.784;30.150;2023-01-27T01:37:44;100226.47;;;2.06;68.11
61474;BME280;53694;49.784;30.150;2023-01-27T01:38:46;100236.69;;;1.66;68.61
61474;BME280;53694;49.784;30.150;2023-01-27T01:39:48;100230.05;;;1.24;70.07
61474;BME280;53694;49.784;30.150;2023-01-27T01:40:49;100235.78;;;0.83;71.20
61474;BME280;53694;49.784;30.150;2023-01-27T01:41:51;100233.33;;;0.47;72.44
61474;BME280;53694;49.784;30.150;2023-01-27T01:42:55;100227.00;;;0.18;73.55
61474;BME280;53694;49.784;30.150;2023-01-27T01:43:57;100232.17;;;0.04;74.59
61474;BME280;53694;49.784;30.150;2023-01-27T01:46:33;100222.66;;;0.22;75.18
61474;BME280;53694;49.784;30.150;2023-01-27T01:47:35;100219.78;;;0.53;74.66
61474;BME280;53694;49.784;30.150;2023-01-27T01:49:46;100218.60;;;1.03;73.21
61474;BME280;53694;49.784;30.150;2023-01-27T01:52:02;100233.32;;;1.50;71.56
61474;BME280;53694;49.784;30.150;2023-01-27T01:53:06;100230.16;;;1.91;69.83
61474;BME280;53694;49.784;30.150;2023-01-27T01:54:11;100230.16;;;1.91;69.83
61474;BME280;53694;49.784;30.150;2023-01-27T01:55:14;100234.03;;;2.09;69.20
61474;BME280;53694;49.784;30.150;2023-01-27T01:56:18;100236.59;;;2.19;68.54
61474;BME280;53694;49.784;30.150;2023-01-27T01:57:26;100244.56;;;2.10;68.43
61474;BME280;53694;49.784;30.150;2023-01-27T01:58:28;100237.47;;;1.90;68.70
61474;BME280;53694;49.784;30.150;2023-01-27T02:00:54;100243.53;;;1.29;69.93
61474;BME280;53694;49.784;30.150;2023-01-27T02:01:57;100237.94;;;0.86;71.06
61474;BME280;53694;49.784;30.150;2023-01-27T02:03:02;100232.20;;;0.54;71.87
61474;BME280;53694;49.784;30.150;2023-01-27T02:04:07;100233.47;;;0.17;72.84
61474;BME280;53694;49.784;30.150;2023-01-27T02:05:25;100230.87;;;-0.09;73.97
61474;BME280;53694;49.784;30.150;2023-01-27T02:06:24;100234.69;;;-0.15;74.70
61474;BME280;53694;49.784;30.150;2023-01-27T02:07:45;100228.73;;;-0.07;74.59
61474;BME280;53694;49.784;30.150;2023-01-27T02:08:48;100223.78;;;0.11;74.41
61474;BME280;53694;49.784;30.150;2023-01-27T02:09:51;100222.30;;;0.39;73.83
61474;BME280;53694;49.784;30.150;2023-01-27T02:10:53;100224.55;;;0.66;73.17
61474;BME280;53694;49.784;30.150;2023-01-27T02:11:57;100225.98;;;0.92;72.44
61474;BME280;53694;49.784;30.150;2023-01-27T02:12:59;100221.45;;;1.17;71.86
61474;BME280;53694;49.784;30.150;2023-01-27T02:14:01;100221.21;;;1.42;70.86
61474;BME280;53694;49.784;30.150;2023-01-27T02:15:07;100218.80;;;1.65;69.91
61474;BME280;53694;49.784;30.150;2023-01-27T02:16:10;100222.39;;;1.84;68.85
61474;BME280;53694;49.784;30.150;2023-01-27T02:17:13;100223.30;;;1.98;67.81
61474;BME280;53694;49.784;30.150;2023-01-27T02:18:15;100222.42;;;2.03;67.32
61474;BME280;53694;49.784;30.150;2023-01-27T02:19:24;100225.03;;;1.89;66.78
61474;BME280;53694;49.784;30.150;2023-01-27T02:20:43;100216.70;;;1.62;67.27
61474;BME280;53694;49.784;30.150;2023-01-27T02:21:47;100215.98;;;1.22;67.93
61474;BME280;53694;49.784;30.150;2023-01-27T02:24:04;100217.16;;;0.37;70.64
61474;BME280;53694;49.784;30.150;2023-01-27T02:25:10;100213.33;;;-0.06;72.16
61474;BME280;53694;49.784;30.150;2023-01-27T02:26:24;100211.83;;;-0.38;73.35
61474;BME280;53694;49.784;30.150;2023-01-27T02:27:26;100205.66;;;-0.64;74.57
61474;BME280;53694;49.784;30.150;2023-01-27T02:28:29;100213.25;;;-0.71;75.62
61474;BME280;53694;49.784;30.150;2023-01-27T02:29:30;100199.71;;;-0.56;76.16
61474;BME280;53694;49.784;30.150;2023-01-27T02:30:32;100207.73;;;-0.30;75.83
61474;BME280;53694;49.784;30.150;2023-01-27T02:31:34;100207.09;;;-0.02;75.30
61474;BME280;53694;49.784;30.150;2023-01-27T02:32:36;100200.77;;;0.23;74.24
61474;BME280;53694;49.784;30.150;2023-01-27T02:33:38;100206.30;;;0.47;73.43
61474;BME280;53694;49.784;30.150;2023-01-27T02:34:39;100201.58;;;0.68;72.52
61474;BME280;53694;49.784;30.150;2023-01-27T02:35:48;100199.27;;;0.86;71.63
61474;BME280;53694;49.784;30.150;2023-01-27T02:36:59;100206.39;;;1.06;71.27
61474;BME280;53694;49.784;30.150;2023-01-27T02:37:58;100206.64;;;1.38;69.38
61474;BME280;53694;49.784;30.150;2023-01-27T02:39:01;100206.64;;;1.38;69.38
61474;BME280;53694;49.784;30.150;2023-01-27T02:40:05;100195.69;;;1.48;68.70
61474;BME280;53694;49.784;30.150;2023-01-27T02:41:11;100201.64;;;1.50;68.45
61474;BME280;53694;49.784;30.150;2023-01-27T02:42:13;100203.93;;;1.38;68.34
61474;BME280;53694;49.784;30.150;2023-01-27T02:43:15;100209.87;;;1.11;68.73
61474;BME280;53694;49.784;30.150;2023-01-27T02:44:17;100219.90;;;0.77;69.47
61474;BME280;53694;49.784;30.150;2023-01-27T02:45:19;100214.71;;;0.41;70.55
61474;BME280;53694;49.784;30.150;2023-01-27T02:46:20;100213.53;;;0.08;71.80
61474;BME280;53694;49.784;30.150;2023-01-27T02:47:22;100213.66;;;-0.23;72.82
61474;BME280;53694;49.784;30.150;2023-01-27T02:48:24;100220.20;;;-0.44;73.93
61474;BME280;53694;49.784;30.150;2023-01-27T02:49:25;100212.64;;;-0.47;74.74
61474;BME280;53694;49.784;30.150;2023-01-27T02:50:27;100218.84;;;-0.37;74.98
61474;BME280;53694;49.784;30.150;2023-01-27T02:51:29;100215.28;;;-0.17;74.84
61474;BME280;53694;49.784;30.150;2023-01-27T02:52:30;100208.12;;;0.08;74.50
61474;BME280;53694;49.784;30.150;2023-01-27T02:53:32;100218.55;;;0.35;73.59
61474;BME280;53694;49.784;30.150;2023-01-27T02:54:33;100218.09;;;0.62;72.98
61474;BME280;53694;49.784;30.150;2023-01-27T02:55:35;100216.56;;;0.85;72.12
61474;BME280;53694;49.784;30.150;2023-01-27T02:56:37;100218.84;;;1.07;71.19
61474;BME280;53694;49.784;30.150;2023-01-27T02:57:38;100218.64;;;1.27;70.50
61474;BME280;53694;49.784;30.150;2023-01-27T02:58:40;100219.55;;;1.46;69.82
61474;BME280;53694;49.784;30.150;2023-01-27T02:59:41;100215.03;;;1.66;69.05
61474;BME280;53694;49.784;30.150;2023-01-27T03:00:43;100220.31;;;1.76;67.81
61474;BME280;53694;49.784;30.150;2023-01-27T03:01:45;100217.04;;;1.79;67.63
61474;BME280;53694;49.784;30.150;2023-01-27T03:02:47;100213.33;;;1.70;67.85
61474;BME280;53694;49.784;30.150;2023-01-27T03:03:48;100214.88;;;1.52;68.23
61474;BME280;53694;49.784;30.150;2023-01-27T03:04:50;100211.11;;;1.24;68.52
61474;BME280;53694;49.784;30.150;2023-01-27T03:05:51;100216.77;;;0.93;69.50
61474;BME280;53694;49.784;30.150;2023-01-27T03:06:53;100214.30;;;0.63;70.13
61474;BME280;53694;49.784;30.150;2023-01-27T03:07:55;100208.58;;;0.30;71.33
61474;BME280;53694;49.784;30.150;2023-01-27T03:08:56;100208.70;;;-0.01;72.16
61474;BME280;53694;49.784;30.150;2023-01-27T03:09:58;100214.47;;;-0.22;73.14
61474;BME280;53694;49.784;30.150;2023-01-27T03:10:59;100210.98;;;-0.28;73.84
61474;BME280;53694;49.784;30.150;2023-01-27T03:12:01;100212.83;;;-0.18;74.12
61474;BME280;53694;49.784;30.150;2023-01-27T03:13:03;100204.94;;;0.01;74.12
61474;BME280;53694;49.784;30.150;2023-01-27T03:14:06;100204.27;;;0.24;73.63
61474;BME280;53694;49.784;30.150;2023-01-27T03:15:09;100206.27;;;0.53;72.98
61474;BME280;53694;49.784;30.150;2023-01-27T03:16:11;100211.20;;;0.80;72.13
61474;BME280;53694;49.784;30.150;2023-01-27T03:17:12;100202.64;;;1.02;71.37
61474;BME280;53694;49.784;30.150;2023-01-27T03:18:14;100200.80;;;1.26;70.35
61474;BME280;53694;49.784;30.150;2023-01-27T03:19:16;100202.20;;;1.47;69.75
61474;BME280;53694;49.784;30.150;2023-01-27T03:20:18;100203.09;;;1.67;68.71
61474;BME280;53694;49.784;30.150;2023-01-27T03:21:19;100196.45;;;1.78;67.82
61474;BME280;53694;49.784;30.150;2023-01-27T03:22:21;100199.63;;;1.85;67.64
61474;BME280;53694;49.784;30.150;2023-01-27T03:23:23;100197.84;;;1.75;67.44
61474;BME280;53694;49.784;30.150;2023-01-27T03:24:24;100201.28;;;1.57;67.82
61474;BME280;53694;49.784;30.150;2023-01-27T03:25:26;100207.25;;;1.30;68.37
61474;BME280;53694;49.784;30.150;2023-01-27T03:26:27;100205.93;;;0.98;69.18
61474;BME280;53694;49.784;30.150;2023-01-27T03:27:29;100206.14;;;0.68;69.85
61474;BME280;53694;49.784;30.150;2023-01-27T03:28:31;100209.09;;;0.32;70.61
61474;BME280;53694;49.784;30.150;2023-01-27T03:29:33;100206.58;;;-0.04;71.75
61474;BME280;53694;49.784;30.150;2023-01-27T03:30:35;100209.11;;;-0.33;73.07
61474;BME280;53694;49.784;30.150;2023-01-27T03:31:37;100206.75;;;-0.55;74.03
61474;BME280;53694;49.784;30.150;2023-01-27T03:32:39;100216.47;;;-0.59;74.75
61474;BME280;53694;49.784;30.150;2023-01-27T03:33:40;100207.25;;;-0.47;75.02
61474;BME280;53694;49.784;30.150;2023-01-27T03:34:42;100208.28;;;-0.28;74.88
61474;BME280;53694;49.784;30.150;2023-01-27T03:35:43;100203.88;;;-0.04;74.26
61474;BME280;53694;49.784;30.150;2023-01-27T03:36:45;100207.52;;;0.21;73.50
61474;BME280;53694;49.784;30.150;2023-01-27T03:37:46;100207.66;;;0.45;73.04
61474;BME280;53694;49.784;30.150;2023-01-27T03:38:48;100203.42;;;0.73;72.53
61474;BME280;53694;49.784;30.150;2023-01-27T03:39:49;100200.77;;;1.02;72.01
61474;BME280;53694;49.784;30.150;2023-01-27T03:40:51;100202.94;;;1.29;70.62
61474;BME280;53694;49.784;30.150;2023-01-27T03:41:52;100199.00;;;1.45;69.38
61474;BME280;53694;49.784;30.150;2023-01-27T03:42:54;100200.95;;;1.64;68.92
61474;BME280;53694;49.784;30.150;2023-01-27T03:43:55;100199.16;;;1.78;67.96
61474;BME280;53694;49.784;30.150;2023-01-27T03:44:57;100205.34;;;1.84;67.49
61474;BME280;53694;49.784;30.150;2023-01-27T03:45:59;100199.22;;;1.73;67.24
61474;BME280;53694;49.784;30.150;2023-01-27T03:47:01;100200.27;;;1.53;67.61
61474;BME280;53694;49.784;30.150;2023-01-27T03:48:03;100194.88;;;1.24;68.21
61474;BME280;53694;49.784;30.150;2023-01-27T03:49:04;100192.42;;;0.93;68.96
61474;BME280;53694;49.784;30.150;2023-01-27T03:50:06;100201.91;;;0.57;69.62
61474;BME280;53694;49.784;30.150;2023-01-27T03:51:09;100196.72;;;0.21;70.64
61474;BME280;53694;49.784;30.150;2023-01-27T03:52:11;100194.48;;;-0.16;71.86
61474;BME280;53694;49.784;30.150;2023-01-27T03:53:13;100190.80;;;-0.51;73.21
61474;BME280;53694;49.784;30.150;2023-01-27T03:54:14;100187.90;;;-0.75;74.43
61474;BME280;53694;49.784;30.150;2023-01-27T03:55:15;100191.67;;;-0.81;75.31
61474;BME280;53694;49.784;30.150;2023-01-27T03:56:19;100186.27;;;-0.71;75.73
61474;BME280;53694;49.784;30.150;2023-01-27T03:57:21;100185.69;;;-0.53;75.63
61474;BME280;53694;49.784;30.150;2023-01-27T03:58:25;100192.61;;;-0.26;75.12
61474;BME280;53694;49.784;30.150;2023-01-27T03:59:27;100188.73;;;0.01;74.51
61474;BME280;53694;49.784;30.150;2023-01-27T04:00:28;100189.66;;;0.30;73.61
61474;BME280;53694;49.784;30.150;2023-01-27T04:01:30;100192.71;;;0.58;72.97
61474;BME280;53694;49.784;30.150;2023-01-27T04:02:32;100181.70;;;0.83;72.08
61474;BME280;53694;49.784;30.150;2023-01-27T04:03:34;100182.58;;;1.08;71.24
61474;BME280;53694;49.784;30.150;2023-01-27T04:04:36;100176.39;;;1.31;70.17
61474;BME280;53694;49.784;30.150;2023-01-27T04:05:37;100179.19;;;1.50;69.23
61474;BME280;53694;49.784;30.150;2023-01-27T04:06:41;100183.37;;;1.61;68.14
61474;BME280;53694;49.784;30.150;2023-01-27T04:07:42;100177.86;;;1.71;67.48
61474;BME280;53694;49.784;30.150;2023-01-27T04:08:44;100178.12;;;1.70;66.81
61474;BME280;53694;49.784;30.150;2023-01-27T04:09:45;100178.38;;;1.49;66.10
61474;BME280;53694;49.784;30.150;2023-01-27T04:10:47;100172.75;;;1.17;66.57
61474;BME280;53694;49.784;30.150;2023-01-27T04:11:49;100178.80;;;0.74;67.27
61474;BME280;53694;49.784;30.150;2023-01-27T04:12:50;100178.53;;;0.37;68.72
61474;BME280;53694;49.784;30.150;2023-01-27T04:13:52;100176.59;;;-0.02;69.80
61474;BME280;53694;49.784;30.150;2023-01-27T04:14:53;100178.09;;;-0.40;71.11
61474;BME280;53694;49.784;30.150;2023-01-27T04:15:54;100181.13;;;-0.72;72.49
61474;BME280;53694;49.784;30.150;2023-01-27T04:17:04;100182.79;;;-1.02;73.41
61474;BME280;53694;49.784;30.150;2023-01-27T04:18:04;100176.36;;;-1.27;74.59
61474;BME280;53694;49.784;30.150;2023-01-27T04:19:07;100181.99;;;-1.28;75.54
61474;BME280;53694;49.784;30.150;2023-01-27T04:20:11;100183.09;;;-1.14;75.69
61474;BME280;53694;49.784;30.150;2023-01-27T04:21:13;100180.92;;;-0.96;75.18
61474;BME280;53694;49.784;30.150;2023-01-27T04:22:15;100173.61;;;-0.76;75.04
61474;BME280;53694;49.784;30.150;2023-01-27T04:23:17;100181.91;;;-0.46;74.68
61474;BME280;53694;49.784;30.150;2023-01-27T04:24:18;100183.42;;;-0.20;73.97
61474;BME280;53694;49.784;30.150;2023-01-27T04:25:20;100174.91;;;0.07;73.12
61474;BME280;53694;49.784;30.150;2023-01-27T04:26:22;100179.33;;;0.37;72.45
61474;BME280;53694;49.784;30.150;2023-01-27T04:27:23;100181.86;;;0.63;71.23
61474;BME280;53694;49.784;30.150;2023-01-27T04:28:25;100177.64;;;0.86;70.48
61474;BME280;53694;49.784;30.150;2023-01-27T04:29:29;100176.13;;;1.04;69.75
61474;BME280;53694;49.784;30.150;2023-01-27T04:30:32;100175.14;;;1.23;69.02
61474;BME280;53694;49.784;30.150;2023-01-27T04:31:33;100177.11;;;1.42;68.32
61474;BME280;53694;49.784;30.150;2023-01-27T04:32:35;100180.55;;;1.47;67.52
61474;BME280;53694;49.784;30.150;2023-01-27T04:33:36;100189.89;;;1.36;67.13
61474;BME280;53694;49.784;30.150;2023-01-27T04:34:38;100181.43;;;1.14;67.48
61474;BME280;53694;49.784;30.150;2023-01-27T04:35:43;100181.70;;;0.83;67.95
61474;BME280;53694;49.784;30.150;2023-01-27T04:36:45;100182.79;;;0.48;68.81
61474;BME280;53694;49.784;30.150;2023-01-27T04:37:47;100182.22;;;0.07;69.73
61474;BME280;53694;49.784;30.150;2023-01-27T04:38:48;100185.91;;;-0.39;71.30
61474;BME280;53694;49.784;30.150;2023-01-27T04:39:50;100187.91;;;-0.80;72.87
61474;BME280;53694;49.784;30.150;2023-01-27T04:40:51;100191.45;;;-1.10;74.14
61474;BME280;53694;49.784;30.150;2023-01-27T04:41:54;100181.47;;;-1.35;75.39
61474;BME280;53694;49.784;30.150;2023-01-27T04:42:56;100187.92;;;-1.41;76.24
61474;BME280;53694;49.784;30.150;2023-01-27T04:43:58;100187.94;;;-1.31;76.73
61474;BME280;53694;49.784;30.150;2023-01-27T04:44:59;100185.23;;;-1.11;76.65
61474;BME280;53694;49.784;30.150;2023-01-27T04:46:01;100186.84;;;-0.84;76.28
61474;BME280;53694;49.784;30.150;2023-01-27T04:47:03;100177.06;;;-0.60;75.59
61474;BME280;53694;49.784;30.150;2023-01-27T04:48:05;100181.81;;;-0.26;74.80
61474;BME280;53694;49.784;30.150;2023-01-27T04:49:07;100183.86;;;0.03;73.71
61474;BME280;53694;49.784;30.150;2023-01-27T04:50:10;100180.47;;;0.31;72.88
61474;BME280;53694;49.784;30.150;2023-01-27T04:51:11;100187.34;;;0.53;71.37
61474;BME280;53694;49.784;30.150;2023-01-27T04:52:13;100183.16;;;0.70;70.94
61474;BME280;53694;49.784;30.150;2023-01-27T04:53:14;100187.61;;;0.90;70.54
61474;BME280;53694;49.784;30.150;2023-01-27T04:54:16;100188.80;;;1.08;69.65
61474;BME280;53694;49.784;30.150;2023-01-27T04:55:18;100180.55;;;1.23;68.80
61474;BME280;53694;49.784;30.150;2023-01-27T04:56:25;100190.94;;;1.40;68.21
61474;BME280;53694;49.784;30.150;2023-01-27T04:57:27;100185.97;;;1.47;67.41
61474;BME280;53694;49.784;30.150;2023-01-27T04:58:28;100185.61;;;1.30;66.88
61474;BME280;53694;49.784;30.150;2023-01-27T04:59:30;100193.96;;;1.05;67.06
61474;BME280;53694;49.784;30.150;2023-01-27T05:00:32;100203.42;;;0.73;67.83
61474;BME280;53694;49.784;30.150;2023-01-27T05:01:33;100193.94;;;0.36;68.64
61474;BME280;53694;49.784;30.150;2023-01-27T05:02:35;100195.20;;;-0.01;69.64
61474;BME280;53694;49.784;30.150;2023-01-27T05:03:36;100185.10;;;-0.39;70.77
61474;BME280;53694;49.784;30.150;2023-01-27T05:04:38;100191.67;;;-0.71;71.99
61474;BME280;53694;49.784;30.150;2023-01-27T05:05:39;100191.16;;;-1.04;73.24
61474;BME280;53694;49.784;30.150;2023-01-27T05:06:41;100193.05;;;-1.24;74.38
61474;BME280;53694;49.784;30.150;2023-01-27T05:07:42;100200.61;;;-1.27;75.10
61474;BME280;53694;49.784;30.150;2023-01-27T05:08:44;100194.68;;;-1.13;75.59
61474;BME280;53694;49.784;30.150;2023-01-27T05:09:46;100198.45;;;-0.89;75.46
61474;BME280;53694;49.784;30.150;2023-01-27T05:10:47;100194.08;;;-0.59;75.15
61474;BME280;53694;49.784;30.150;2023-01-27T05:11:49;100199.64;;;-0.25;74.65
61474;BME280;53694;49.784;30.150;2023-01-27T05:12:50;100191.38;;;0.11;73.82
61474;BME280;53694;49.784;30.150;2023-01-27T05:13:52;100194.16;;;0.45;72.55
61474;BME280;53694;49.784;30.150;2023-01-27T05:14:53;100196.38;;;0.72;71.31
61474;BME280;53694;49.784;30.150;2023-01-27T05:16:13;100198.67;;;0.94;70.23
61474;BME280;53694;49.784;30.150;2023-01-27T05:17:15;100195.01;;;1.09;68.75
61474;BME280;53694;49.784;30.150;2023-01-27T05:18:17;100198.95;;;1.21;68.32
61474;BME280;53694;49.784;30.150;2023-01-27T05:19:18;100202.33;;;1.37;68.01
61474;BME280;53694;49.784;30.150;2023-01-27T05:20:20;100201.16;;;1.43;67.12
61474;BME280;53694;49.784;30.150;2023-01-27T05:21:24;100201.04;;;1.30;67.02
61474;BME280;53694;49.784;30.150;2023-01-27T05:22:26;100204.73;;;1.10;67.57
61474;BME280;53694;49.784;30.150;2023-01-27T05:23:28;100206.09;;;0.78;68.17
61474;BME280;53694;49.784;30.150;2023-01-27T05:24:29;100206.86;;;0.44;69.18
61474;BME280;53694;49.784;30.150;2023-01-27T05:25:31;100202.18;;;0.11;70.26
61474;BME280;53694;49.784;30.150;2023-01-27T05:26:33;100199.87;;;-0.21;71.19
61474;BME280;53694;49.784;30.150;2023-01-27T05:27:35;100189.98;;;-0.52;72.31
61474;BME280;53694;49.784;30.150;2023-01-27T05:28:38;100200.85;;;-0.72;73.42
61474;BME280;53694;49.784;30.150;2023-01-27T05:29:40;100199.77;;;-0.76;74.09
61474;BME280;53694;49.784;30.150;2023-01-27T05:30:41;100192.74;;;-0.67;74.35
61474;BME280;53694;49.784;30.150;2023-01-27T05:31:43;100191.06;;;-0.47;74.30
61474;BME280;53694;49.784;30.150;2023-01-27T05:32:45;100195.86;;;-0.24;73.91
61474;BME280;53694;49.784;30.150;2023-01-27T05:33:49;100193.05;;;0.02;73.33
61474;BME280;53694;49.784;30.150;2023-01-27T05:34:51;100191.82;;;0.28;72.92
61474;BME280;53694;49.784;30.150;2023-01-27T05:35:53;100191.62;;;0.59;72.07
61474;BME280;53694;49.784;30.150;2023-01-27T05:36:54;100191.72;;;0.83;71.25
61474;BME280;53694;49.784;30.150;2023-01-27T05:37:56;100185.05;;;1.04;70.62
61474;BME280;53694;49.784;30.150;2023-01-27T05:38:58;100190.52;;;1.28;69.99
61474;BME280;53694;49.784;30.150;2023-01-27T05:40:00;100180.05;;;1.45;68.88
61474;BME280;53694;49.784;30.150;2023-01-27T05:41:03;100192.09;;;1.58;67.66
61474;BME280;53694;49.784;30.150;2023-01-27T05:42:05;100191.22;;;1.63;67.41
61474;BME280;53694;49.784;30.150;2023-01-27T05:43:06;100192.42;;;1.52;67.18
61474;BME280;53694;49.784;30.150;2023-01-27T05:44:10;100193.22;;;1.28;67.47
61474;BME280;53694;49.784;30.150;2023-01-27T05:45:12;100195.12;;;0.93;67.81
61474;BME280;53694;49.784;30.150;2023-01-27T05:46:16;100198.67;;;0.55;68.81
61474;BME280;53694;49.784;30.150;2023-01-27T05:47:18;100192.15;;;0.16;69.86
61474;BME280;53694;49.784;30.150;2023-01-27T05:48:19;100195.83;;;-0.19;71.07
61474;BME280;53694;49.784;30.150;2023-01-27T05:49:21;100192.44;;;-0.50;72.16
61474;BME280;53694;49.784;30.150;2023-01-27T05:50:23;100189.52;;;-0.79;73.24
61474;BME280;53694;49.784;30.150;2023-01-27T05:51:27;100187.38;;;-1.03;74.43
61474;BME280;53694;49.784;30.150;2023-01-27T05:52:28;100187.92;;;-1.11;75.24
61474;BME280;53694;49.784;30.150;2023-01-27T05:53:30;100182.54;;;-1.01;75.79
61474;BME280;53694;49.784;30.150;2023-01-27T05:54:32;100191.67;;;-0.81;75.48
61474;BME280;53694;49.784;30.150;2023-01-27T05:55:33;100189.76;;;-0.55;75.12
61474;BME280;53694;49.784;30.150;2023-01-27T05:56:35;100188.84;;;-0.25;74.52
61474;BME280;53694;49.784;30.150;2023-01-27T05:57:36;100203.30;;;0.05;73.50
61474;BME280;53694;49.784;30.150;2023-01-27T05:58:38;100193.43;;;0.29;72.61
61474;BME280;53694;49.784;30.150;2023-01-27T05:59:40;100197.61;;;0.56;72.01
61474;BME280;53694;49.784;30.150;2023-01-27T06:00:42;100195.27;;;0.78;71.02
61474;BME280;53694;49.784;30.150;2023-01-27T06:01:44;100197.81;;;0.98;69.87
61474;BME280;53694;49.784;30.150;2023-01-27T06:02:46;100195.50;;;1.16;68.70
61474;BME280;53694;49.784;30.150;2023-01-27T06:03:48;100207.31;;;1.25;67.65
61474;BME280;53694;49.784;30.150;2023-01-27T06:04:49;100203.50;;;1.26;67.58
61474;BME280;53694;49.784;30.150;2023-01-27T06:05:53;100194.69;;;1.15;67.78
61474;BME280;53694;49.784;30.150;2023-01-27T06:06:55;100202.23;;;0.89;67.86
61474;BME280;53694;49.784;30.150;2023-01-27T06:07:56;100202.42;;;0.59;68.80
61474;BME280;53694;49.784;30.150;2023-01-27T06:08:58;100196.71;;;0.26;69.54
61474;BME280;53694;49.784;30.150;2023-01-27T06:10:00;100203.36;;;-0.11;70.50
61474;BME280;53694;49.784;30.150;2023-01-27T06:11:02;100190.00;;;-0.46;71.72
61474;BME280;53694;49.784;30.150;2023-01-27T06:12:04;100188.72;;;-0.80;73.11
61474;BME280;53694;49.784;30.150;2023-01-27T06:13:06;100194.94;;;-0.99;74.31
61474;BME280;53694;49.784;30.150;2023-01-27T06:14:07;100189.55;;;-0.99;75.09
61474;BME280;53694;49.784;30.150;2023-01-27T06:15:09;100192.77;;;-0.87;75.25
61474;BME280;53694;49.784;30.150;2023-01-27T06:16:14;100193.55;;;-0.66;74.86
61474;BME280;53694;49.784;30.150;2023-01-27T06:17:15;100187.00;;;-0.40;74.37
61474;BME280;53694;49.784;30.150;2023-01-27T06:18:18;100193.91;;;-0.08;73.94
61474;BME280;53694;49.784;30.150;2023-01-27T06:19:20;100189.70;;;0.20;72.84
61474;BME280;53694;49.784;30.150;2023-01-27T06:20:22;100197.66;;;0.45;71.93
61474;BME280;53694;49.784;30.150;2023-01-27T06:21:23;100203.17;;;0.69;71.30
61474;BME280;53694;49.784;30.150;2023-01-27T06:22:25;100198.67;;;0.94;70.47
61474;BME280;53694;49.784;30.150;2023-01-27T06:23:27;100196.59;;;1.15;69.81
61474;BME280;53694;49.784;30.150;2023-01-27T06:24:28;100195.30;;;1.36;69.09
61474;BME280;53694;49.784;30.150;2023-01-27T06:25:37;100196.47;;;1.54;67.81
61474;BME280;53694;49.784;30.150;2023-01-27T06:26:35;100192.89;;;1.59;67.35
61474;BME280;53694;49.784;30.150;2023-01-27T06:27:37;100197.36;;;1.44;66.72
61474;BME280;53694;49.784;30.150;2023-01-27T06:28:39;100199.30;;;1.15;66.91
61474;BME280;53694;49.784;30.150;2023-01-27T06:29:40;100201.78;;;0.77;67.23
61474;BME280;53694;49.784;30.150;2023-01-27T06:30:42;100199.63;;;0.30;67.94
61474;BME280;53694;49.784;30.150;2023-01-27T06:31:44;100194.73;;;-0.18;69.29
61474;BME280;53694;49.784;30.150;2023-01-27T06:32:45;100200.55;;;-0.65;70.83
61474;BME280;53694;49.784;30.150;2023-01-27T06:33:47;100194.67;;;-1.08;72.55
61474;BME280;53694;49.784;30.150;2023-01-27T06:34:48;100205.69;;;-1.40;74.24
61474;BME280;53694;49.784;30.150;2023-01-27T06:35:50;100207.58;;;-1.61;75.41
61474;BME280;53694;49.784;30.150;2023-01-27T06:36:52;100200.83;;;-1.64;76.21
61474;BME280;53694;49.784;30.150;2023-01-27T06:37:56;100208.91;;;-1.54;76.48
61474;BME280;53694;49.784;30.150;2023-01-27T06:38:58;100196.55;;;-1.34;76.56